createdAt,value
2023-02-06T00:00:50.612Z,96021.81
2023-02-06T00:03:17.536Z,96019.00
2023-02-06T00:05:44.390Z,96018.91
2023-02-06T00:08:11.068Z,96019.13
2023-02-06T00:10:37.761Z,96025.75
2023-02-06T00:13:04.614Z,96015.56
2023-02-06T00:15:31.681Z,96013.97
2023-02-06T00:17:58.332Z,96016.59
2023-02-06T00:20:24.994Z,96012.13
2023-02-06T00:22:51.843Z,96015.56
2023-02-06T00:25:18.731Z,96013.03
2023-02-06T00:27:45.560Z,96020.59
2023-02-06T00:30:12.910Z,96025.00
2023-02-06T00:32:40.720Z,96026.13
2023-02-06T00:35:07.945Z,96030.81
2023-02-06T00:37:34.756Z,96031.41
2023-02-06T00:40:01.548Z,96033.59
2023-02-06T00:42:28.215Z,96041.66
2023-02-06T00:44:55.081Z,96034.63
2023-02-06T00:47:21.818Z,96034.47
2023-02-06T00:49:48.671Z,96037.59
2023-02-06T00:52:15.400Z,96036.78
2023-02-06T00:54:42.062Z,96035.19
2023-02-06T00:57:08.777Z,96029.78
2023-02-06T00:59:35.534Z,96029.34
2023-02-06T01:02:02.394Z,96033.34
2023-02-06T01:04:30.804Z,96025.13
2023-02-06T01:06:59.014Z,96033.78
2023-02-06T01:09:25.835Z,96037.72
2023-02-06T01:11:53.018Z,96043.34
2023-02-06T01:14:19.755Z,96029.50
2023-02-06T01:16:46.676Z,96031.41
2023-02-06T01:19:13.900Z,96038.19
2023-02-06T01:21:40.990Z,96032.91
2023-02-06T01:24:07.894Z,96036.41
2023-02-06T01:26:34.615Z,96016.63
2023-02-06T01:29:03.955Z,96019.41
2023-02-06T01:31:31.248Z,96009.00
2023-02-06T01:33:59.400Z,96013.84
2023-02-06T01:36:26.962Z,96011.91
2023-02-06T01:38:53.692Z,96008.81
2023-02-06T01:41:23.609Z,96006.78
2023-02-06T01:44:23.625Z,96006.69
2023-02-06T01:46:53.331Z,96008.00
2023-02-06T01:49:32.410Z,96004.56
2023-02-06T01:52:23.764Z,96001.22
2023-02-06T01:54:58.073Z,96005.00
2023-02-06T01:57:26.291Z,96006.63
2023-02-06T02:00:00.270Z,96007.78
2023-02-06T02:02:28.757Z,96015.72
2023-02-06T02:04:56.961Z,96011.47
2023-02-06T02:07:27.366Z,96016.75
2023-02-06T02:09:54.262Z,96015.13
2023-02-06T02:12:20.908Z,96015.13
2023-02-06T02:14:50.129Z,96008.81
2023-02-06T02:17:38.501Z,96004.09
2023-02-06T02:20:33.022Z,96005.41
2023-02-06T02:23:21.006Z,96004.47
2023-02-06T02:25:56.860Z,96006.50
2023-02-06T02:28:59.236Z,96005.28
2023-02-06T02:31:50.505Z,96010.47
2023-02-06T02:34:54.908Z,96020.81
2023-02-06T02:37:50.759Z,96029.09
2023-02-06T02:40:40.289Z,96015.53
2023-02-06T02:43:34.026Z,96018.75
2023-02-06T02:46:08.923Z,96010.63
2023-02-06T02:48:42.202Z,96007.41
2023-02-06T02:51:10.275Z,96008.06
2023-02-06T02:53:37.386Z,96008.13
2023-02-06T02:56:18.448Z,96011.66
2023-02-06T02:58:49.015Z,96009.16
2023-02-06T03:01:21.353Z,96014.44
2023-02-06T03:03:51.922Z,96018.25
2023-02-06T03:06:39.917Z,96022.28
2023-02-06T03:09:25.723Z,96019.91
2023-02-06T03:12:12.910Z,96015.03
2023-02-06T03:14:49.341Z,96014.31
2023-02-06T03:17:25.322Z,96022.22
2023-02-06T03:19:56.640Z,96018.41
2023-02-06T03:22:25.638Z,96014.81
2023-02-06T03:24:54.400Z,96007.50
2023-02-06T03:27:22.861Z,96002.66
2023-02-06T03:29:51.082Z,96000.06
2023-02-06T03:32:25.724Z,96005.81
2023-02-06T03:35:01.821Z,96022.19
2023-02-06T03:37:29.472Z,96020.59
2023-02-06T03:39:58.780Z,96019.78
2023-02-06T03:42:27.082Z,96010.84
2023-02-06T03:45:03.539Z,96012.56
2023-02-06T03:47:31.281Z,96024.50
2023-02-06T03:50:00.204Z,96023.09
2023-02-06T03:52:35.070Z,96017.09
2023-02-06T03:55:07.186Z,96024.84
2023-02-06T03:57:36.892Z,96019.06
2023-02-06T04:00:05.802Z,96025.13
2023-02-06T04:02:39.614Z,96025.34
2023-02-06T04:05:07.235Z,96023.09
2023-02-06T04:07:35.980Z,96012.88
2023-02-06T04:10:02.921Z,96010.03
2023-02-06T04:12:29.657Z,96004.19
2023-02-06T04:14:56.378Z,96001.03
2023-02-06T04:17:40.710Z,95992.81
2023-02-06T04:20:10.506Z,96001.63
2023-02-06T04:22:38.179Z,95998.44
2023-02-06T04:25:05.012Z,95992.00
2023-02-06T04:27:31.692Z,95987.16
2023-02-06T04:29:58.461Z,95999.50
2023-02-06T04:32:25.117Z,96002.81
2023-02-06T04:34:51.794Z,95999.13
2023-02-06T04:37:18.477Z,96004.19
2023-02-06T04:39:45.146Z,96006.91
2023-02-06T04:42:11.757Z,95998.41
2023-02-06T04:44:38.573Z,96003.59
2023-02-06T04:47:05.581Z,96003.72
2023-02-06T04:49:32.233Z,96005.88
2023-02-06T04:51:58.936Z,96013.09
2023-02-06T04:54:25.584Z,96006.63
2023-02-06T04:56:52.250Z,96001.38
2023-02-06T04:59:18.926Z,96010.88
2023-02-06T05:01:45.764Z,96006.63
2023-02-06T05:04:12.444Z,96005.06
2023-02-06T05:06:39.185Z,95999.63
2023-02-06T05:09:06.275Z,96001.28
2023-02-06T05:11:33.216Z,96002.47
2023-02-06T05:13:59.863Z,95997.41
2023-02-06T05:16:26.650Z,95999.47
2023-02-06T05:18:55.447Z,96007.59
2023-02-06T05:21:23.618Z,96003.13
2023-02-06T05:23:50.320Z,96005.22
2023-02-06T05:26:17.345Z,96002.56
2023-02-06T05:28:44.005Z,96004.28
2023-02-06T05:31:18.307Z,95999.22
2023-02-06T05:33:46.558Z,96010.72
2023-02-06T05:36:13.933Z,96002.94
2023-02-06T05:38:40.601Z,96011.66
2023-02-06T05:41:07.384Z,96010.72
2023-02-06T05:43:34.037Z,96019.06
2023-02-06T05:46:01.282Z,96014.94
2023-02-06T05:48:30.502Z,96015.63
2023-02-06T05:50:58.339Z,96015.63
2023-02-06T05:53:25.189Z,96004.34
2023-02-06T05:55:52.315Z,96016.78
2023-02-06T05:58:19.810Z,96007.50
2023-02-06T06:00:46.537Z,95994.97
2023-02-06T06:03:13.189Z,96003.28
2023-02-06T06:05:39.939Z,95997.81
2023-02-06T06:08:06.783Z,95993.94
2023-02-06T06:10:33.450Z,96004.06
2023-02-06T06:13:00.143Z,95997.16
2023-02-06T06:15:26.832Z,95997.94
2023-02-06T06:17:53.457Z,96006.59
2023-02-06T06:20:20.339Z,96014.47
2023-02-06T06:22:47.000Z,96021.72
2023-02-06T06:25:13.829Z,96025.59
2023-02-06T06:27:40.586Z,96021.94
2023-02-06T06:30:07.948Z,96025.84
2023-02-06T06:32:34.618Z,96029.56
2023-02-06T06:35:01.325Z,96037.69
2023-02-06T06:37:27.997Z,96030.16
2023-02-06T06:39:54.632Z,96036.63
2023-02-06T06:42:21.274Z,96015.81
2023-02-06T06:44:47.912Z,96030.16
2023-02-06T06:47:14.535Z,96029.28
2023-02-06T06:49:41.217Z,96022.66
2023-02-06T06:52:19.597Z,96009.69
2023-02-06T06:54:52.348Z,96015.38
2023-02-06T06:57:20.043Z,96017.81
2023-02-06T06:59:46.772Z,96019.00
2023-02-06T07:02:13.854Z,96021.78
2023-02-06T07:04:40.535Z,96029.84
2023-02-06T07:07:07.345Z,96034.56
2023-02-06T07:09:34.058Z,96034.34
2023-02-06T07:12:00.695Z,96034.31
2023-02-06T07:14:27.429Z,96046.66
2023-02-06T07:16:54.168Z,96045.66
2023-02-06T07:19:21.435Z,96034.72
2023-02-06T07:21:48.073Z,96020.72
2023-02-06T07:24:14.688Z,96030.75
2023-02-06T07:26:41.695Z,96042.09
2023-02-06T07:29:08.516Z,96045.53
2023-02-06T07:31:35.328Z,96041.06
2023-02-06T07:34:02.382Z,96033.56
2023-02-06T07:36:29.251Z,96035.72
2023-02-06T07:38:56.156Z,96033.13
2023-02-06T07:41:22.816Z,96025.06
2023-02-06T07:43:49.979Z,96038.19
2023-02-06T07:46:16.804Z,96032.84
2023-02-06T07:48:43.582Z,96034.03
2023-02-06T07:51:10.346Z,96039.97
2023-02-06T07:53:38.053Z,96033.44
2023-02-06T07:56:19.262Z,96031.28
2023-02-06T07:58:49.495Z,96027.44
2023-02-06T08:01:16.484Z,96025.44
2023-02-06T08:03:43.169Z,96023.38
2023-02-06T08:06:12.392Z,96023.19
2023-02-06T08:08:39.203Z,96025.81
2023-02-06T08:11:07.925Z,96027.97
2023-02-06T08:13:35.370Z,96027.66
2023-02-06T08:16:08.030Z,96038.53
2023-02-06T08:18:35.055Z,96035.94
2023-02-06T08:21:06.879Z,96019.28
2023-02-06T08:23:33.545Z,96017.94
2023-02-06T08:26:28.188Z,96020.69
2023-02-06T08:28:56.466Z,96033.56
2023-02-06T08:31:26.356Z,96030.69
2023-02-06T08:33:53.278Z,96037.00
2023-02-06T08:36:21.792Z,96033.94
2023-02-06T08:38:48.798Z,96033.50
2023-02-06T08:41:19.925Z,96039.63
2023-02-06T08:43:47.900Z,96030.56
2023-02-06T08:46:16.349Z,96029.25
2023-02-06T08:48:43.230Z,96024.78
2023-02-06T08:51:11.368Z,96031.50
2023-02-06T08:53:38.859Z,96019.00
2023-02-06T08:56:08.168Z,96016.06
2023-02-06T08:58:35.768Z,96023.31
2023-02-06T09:01:07.464Z,96025.47
2023-02-06T09:03:34.656Z,96032.91
2023-02-06T09:06:09.905Z,96028.22
2023-02-06T09:08:38.588Z,96015.25
2023-02-06T09:11:10.117Z,96018.91
2023-02-06T09:13:38.021Z,96020.88
2023-02-06T09:16:05.670Z,96017.81
2023-02-06T09:18:32.882Z,96020.88
2023-02-06T09:21:05.477Z,96019.88
2023-02-06T09:23:32.331Z,96028.03
2023-02-06T09:25:59.034Z,96022.63
2023-02-06T09:28:25.829Z,96030.25
2023-02-06T09:30:52.617Z,96023.22
2023-02-06T09:33:19.417Z,96016.50
2023-02-06T09:35:46.062Z,96017.72
2023-02-06T09:38:12.994Z,96019.50
2023-02-06T09:40:39.726Z,96000.59
2023-02-06T09:43:06.781Z,96001.09
2023-02-06T09:45:33.678Z,95997.44
2023-02-06T09:48:25.475Z,95998.63
2023-02-06T09:51:20.056Z,96002.50
2023-02-06T09:54:09.112Z,95996.06
2023-02-06T09:57:11.133Z,95997.00
2023-02-06T09:59:55.387Z,95993.28
2023-02-06T10:02:31.097Z,95999.06
2023-02-06T10:05:13.560Z,95987.28
2023-02-06T10:08:07.638Z,95990.94
2023-02-06T10:10:40.371Z,95981.19
2023-02-06T10:13:16.232Z,95974.53
2023-02-06T10:15:47.055Z,95965.97
2023-02-06T10:18:37.695Z,95970.94
2023-02-06T10:21:27.645Z,95974.31
2023-02-06T10:24:16.236Z,95978.84
2023-02-06T10:26:42.956Z,95966.09
2023-02-06T10:29:19.729Z,95975.75
2023-02-06T10:32:13.642Z,95975.84
2023-02-06T10:35:15.926Z,95981.56
2023-02-06T10:38:17.692Z,95965.38
2023-02-06T10:41:02.848Z,95958.88
2023-02-06T10:43:55.958Z,95967.25
2023-02-06T10:46:46.272Z,95953.81
2023-02-06T10:49:36.335Z,95939.81
2023-02-06T10:52:14.731Z,95941.19
2023-02-06T10:54:50.781Z,95944.22
2023-02-06T10:57:21.780Z,95940.31
2023-02-06T10:59:53.744Z,95941.72
2023-02-06T11:02:28.343Z,95939.16
2023-02-06T11:05:09.676Z,95939.66
2023-02-06T11:07:43.576Z,95937.69
2023-02-06T11:10:15.341Z,95933.97
2023-02-06T11:12:47.972Z,95933.22
2023-02-06T11:15:32.910Z,95926.13
2023-02-06T11:18:06.208Z,95916.75
2023-02-06T11:20:35.945Z,95914.56
2023-02-06T11:23:27.481Z,95911.47
2023-02-06T11:26:13.996Z,95921.53
2023-02-06T11:28:56.068Z,95916.03
2023-02-06T11:31:45.608Z,95915.72
2023-02-06T11:34:33.834Z,95904.16
2023-02-06T11:37:06.753Z,95897.22
2023-02-06T11:39:36.438Z,95904.97
2023-02-06T11:42:13.601Z,95908.25
2023-02-06T11:44:42.762Z,95911.41
2023-02-06T11:47:38.047Z,95915.56
2023-02-06T11:50:14.194Z,95917.25
2023-02-06T11:52:47.008Z,95905.69
2023-02-06T11:55:29.041Z,95898.72
2023-02-06T11:58:14.085Z,95903.75
2023-02-06T12:00:55.588Z,95912.94
2023-02-06T12:03:38.325Z,95910.19
2023-02-06T12:06:32.830Z,95907.56
2023-02-06T12:09:02.599Z,95892.31
2023-02-06T12:11:37.091Z,95887.97
2023-02-06T12:14:11.557Z,95892.31
2023-02-06T12:16:40.480Z,95883.00
2023-02-06T12:19:25.226Z,95867.19
2023-02-06T12:22:02.249Z,95864.31
2023-02-06T12:24:36.616Z,95874.34
2023-02-06T12:27:24.686Z,95877.56
2023-02-06T12:30:28.931Z,95862.19
2023-02-06T12:33:03.676Z,95874.00
2023-02-06T12:35:43.609Z,95870.63
2023-02-06T12:38:21.963Z,95874.88
2023-02-06T12:41:00.820Z,95873.63
2023-02-06T12:43:29.514Z,95866.88
2023-02-06T12:46:19.533Z,95851.28
2023-02-06T12:48:53.778Z,95864.44
2023-02-06T12:51:26.507Z,95857.66
2023-02-06T12:53:58.831Z,95855.75
2023-02-06T12:56:35.691Z,95848.88
2023-02-06T12:59:29.866Z,95837.72
2023-02-06T13:02:05.419Z,95830.91
2023-02-06T13:04:36.475Z,95816.47
2023-02-06T13:07:06.559Z,95825.56
2023-02-06T13:09:41.779Z,95821.44
2023-02-06T13:12:13.224Z,95819.91
2023-02-06T13:14:51.261Z,95832.25
2023-02-06T13:17:21.459Z,95826.47
2023-02-06T13:19:48.099Z,95827.66
2023-02-06T13:22:19.424Z,95832.47
2023-02-06T13:24:50.896Z,95836.59
2023-02-06T13:27:43.893Z,95846.13
2023-02-06T13:30:39.824Z,95837.34
2023-02-06T13:33:27.231Z,95832.25
2023-02-06T13:36:05.513Z,95825.81
2023-02-06T13:38:35.106Z,95835.44
2023-02-06T13:41:17.070Z,95840.94
2023-02-06T13:44:20.771Z,95837.97
2023-02-06T13:47:08.166Z,95831.03
2023-02-06T13:50:05.802Z,95820.88
2023-02-06T13:53:03.149Z,95830.84
2023-02-06T13:55:55.956Z,95826.88
2023-02-06T13:58:31.613Z,95833.56
2023-02-06T14:00:59.732Z,95828.53
2023-02-06T14:03:30.554Z,95826.00
2023-02-06T14:06:06.812Z,95830.81
2023-02-06T14:09:01.578Z,95828.06
2023-02-06T14:12:02.462Z,95832.22
2023-02-06T14:14:41.039Z,95829.88
2023-02-06T14:17:31.762Z,95827.38
2023-02-06T14:20:26.342Z,95825.78
2023-02-06T14:23:17.131Z,95819.69
2023-02-06T14:26:04.500Z,95810.84
2023-02-06T14:28:58.996Z,95813.69
2023-02-06T14:31:49.979Z,95830.31
2023-02-06T14:34:37.713Z,95824.31
2023-02-06T14:37:34.442Z,95830.53
2023-02-06T14:40:04.706Z,95829.06
2023-02-06T14:42:37.316Z,95828.94
2023-02-06T14:45:21.349Z,95825.94
2023-02-06T14:47:48.620Z,95820.88
2023-02-06T14:50:25.493Z,95823.75
2023-02-06T14:52:59.970Z,95834.19
2023-02-06T14:55:45.162Z,95827.31
2023-02-06T14:58:27.135Z,95830.25
2023-02-06T15:00:56.218Z,95834.88
2023-02-06T15:03:27.274Z,95839.56
2023-02-06T15:06:02.108Z,95829.91
2023-02-06T15:08:28.740Z,95837.25
2023-02-06T15:11:00.793Z,95834.16
2023-02-06T15:13:36.245Z,95834.84
2023-02-06T15:16:08.567Z,95830.16
2023-02-06T15:18:36.513Z,95822.09
2023-02-06T15:21:09.012Z,95818.59
2023-02-06T15:23:55.512Z,95821.47
2023-02-06T15:27:00.545Z,95821.25
2023-02-06T15:29:27.565Z,95820.53
2023-02-06T15:32:00.686Z,95825.00
2023-02-06T15:34:27.681Z,95820.28
2023-02-06T15:36:54.412Z,95823.59
2023-02-06T15:39:21.582Z,95817.59
2023-02-06T15:41:51.441Z,95816.19
2023-02-06T15:44:31.318Z,95809.66
2023-02-06T15:46:58.708Z,95814.25
2023-02-06T15:49:42.419Z,95810.91
2023-02-06T15:52:11.599Z,95813.56
2023-02-06T15:54:42.496Z,95806.81
2023-02-06T15:57:41.144Z,95808.66
2023-02-06T16:00:23.547Z,95811.72
2023-02-06T16:02:51.024Z,95800.16
2023-02-06T16:05:26.195Z,95798.47
2023-02-06T16:07:53.056Z,95801.31
2023-02-06T16:10:19.678Z,95814.50
2023-02-06T16:12:46.732Z,95805.53
2023-02-06T16:15:38.998Z,95816.09
2023-02-06T16:18:23.952Z,95813.09
2023-02-06T16:20:50.949Z,95811.47
2023-02-06T16:23:29.702Z,95815.56
2023-02-06T16:26:05.541Z,95806.50
2023-02-06T16:28:32.253Z,95806.88
2023-02-06T16:31:02.102Z,95811.31
2023-02-06T16:33:33.895Z,95796.50
2023-02-06T16:36:00.882Z,95790.69
2023-02-06T16:38:27.567Z,95802.53
2023-02-06T16:40:54.620Z,95796.88
2023-02-06T16:43:21.576Z,95792.78
2023-02-06T16:45:49.209Z,95789.94
2023-02-06T16:48:17.666Z,95807.34
2023-02-06T16:50:45.558Z,95807.88
2023-02-06T16:53:21.800Z,95810.72
2023-02-06T16:55:49.454Z,95811.66
2023-02-06T16:58:22.892Z,95809.81
2023-02-06T17:00:50.300Z,95816.06
2023-02-06T17:03:17.858Z,95814.00
2023-02-06T17:05:46.274Z,95810.94
2023-02-06T17:08:21.835Z,95815.97
2023-02-06T17:10:49.365Z,95821.91
2023-02-06T17:13:18.743Z,95808.44
2023-02-06T17:15:49.080Z,95816.44
2023-02-06T17:18:18.430Z,95812.19
2023-02-06T17:20:47.684Z,95816.13
2023-02-06T17:23:15.073Z,95822.41
2023-02-06T17:25:44.621Z,95815.31
2023-02-06T17:28:14.957Z,95806.03
2023-02-06T17:30:42.050Z,95813.59
2023-02-06T17:33:09.127Z,95810.59
2023-02-06T17:35:37.006Z,95801.88
2023-02-06T17:38:05.397Z,95817.25
2023-02-06T17:40:34.531Z,95815.19
2023-02-06T17:43:03.900Z,95817.25
2023-02-06T17:45:31.570Z,95808.59
2023-02-06T17:47:58.241Z,95810.22
2023-02-06T17:50:26.830Z,95802.31
2023-02-06T17:52:55.761Z,95806.47
2023-02-06T17:55:26.995Z,95807.63
2023-02-06T17:57:54.250Z,95814.28
2023-02-06T18:00:23.736Z,95815.63
2023-02-06T18:02:52.133Z,95816.72
2023-02-06T18:05:19.356Z,95817.53
2023-02-06T18:07:49.466Z,95814.47
2023-02-06T18:10:20.729Z,95817.09
2023-02-06T18:12:47.957Z,95807.34
2023-02-06T18:15:15.484Z,95814.25
2023-02-06T18:17:42.592Z,95805.44
2023-02-06T18:20:11.298Z,95803.94
2023-02-06T18:22:41.341Z,95805.97
2023-02-06T18:25:13.847Z,95799.84
2023-02-06T18:27:41.592Z,95800.97
2023-02-06T18:30:09.176Z,95795.00
2023-02-06T18:32:37.621Z,95787.25
2023-02-06T18:35:04.938Z,95791.34
2023-02-06T18:37:31.616Z,95801.94
2023-02-06T18:39:58.260Z,95805.59
2023-02-06T18:42:43.590Z,95814.31
2023-02-06T18:45:10.448Z,95814.53
2023-02-06T18:47:38.020Z,95817.53
2023-02-06T18:50:04.999Z,95812.63
2023-02-06T18:52:31.719Z,95802.31
2023-02-06T18:54:58.347Z,95801.94
2023-02-06T18:57:24.989Z,95805.22
2023-02-06T18:59:51.685Z,95798.34
2023-02-06T19:02:18.563Z,95787.22
2023-02-06T19:04:45.258Z,95788.72
2023-02-06T19:07:11.981Z,95778.75
2023-02-06T19:09:39.329Z,95785.78
2023-02-06T19:12:06.411Z,95770.63
2023-02-06T19:14:33.080Z,95778.41
2023-02-06T19:16:59.779Z,95779.78
2023-02-06T19:19:26.557Z,95774.06
2023-02-06T19:21:53.265Z,95776.84
2023-02-06T19:24:20.008Z,95784.16
2023-02-06T19:26:46.697Z,95773.16
2023-02-06T19:29:16.814Z,95773.56
2023-02-06T19:31:44.351Z,95785.72
2023-02-06T19:34:11.326Z,95777.38
2023-02-06T19:36:38.079Z,95779.88
2023-02-06T19:39:07.257Z,95787.38
2023-02-06T19:41:34.549Z,95780.72
2023-02-06T19:44:05.600Z,95784.53
2023-02-06T19:46:33.189Z,95791.19
2023-02-06T19:49:00.213Z,95775.84
2023-02-06T19:51:30.653Z,95775.03
2023-02-06T19:53:59.205Z,95772.19
2023-02-06T19:56:36.260Z,95770.13
2023-02-06T19:59:05.756Z,95778.25
2023-02-06T20:01:32.825Z,95788.34
2023-02-06T20:04:01.182Z,95792.81
2023-02-06T20:06:30.765Z,95786.38
2023-02-06T20:08:57.419Z,95789.44
2023-02-06T20:11:24.230Z,95792.06
2023-02-06T20:13:55.491Z,95795.28
2023-02-06T20:16:25.300Z,95792.22
2023-02-06T20:18:53.060Z,95802.16
2023-02-06T20:21:26.763Z,95805.38
2023-02-06T20:23:55.867Z,95793.66
2023-02-06T20:26:25.633Z,95797.63
2023-02-06T20:28:52.492Z,95803.19
2023-02-06T20:31:19.707Z,95813.53
2023-02-06T20:33:47.002Z,95809.66
2023-02-06T20:36:16.944Z,95813.66
2023-02-06T20:38:48.445Z,95806.81
2023-02-06T20:41:15.542Z,95819.38
2023-02-06T20:43:42.216Z,95821.91
2023-02-06T20:46:09.469Z,95820.50
2023-02-06T20:48:36.656Z,95827.03
2023-02-06T20:51:05.468Z,95828.44
2023-02-06T20:53:32.429Z,95830.75
2023-02-06T20:55:59.329Z,95822.63
2023-02-06T20:58:26.141Z,95827.06
2023-02-06T21:00:53.630Z,95836.22
2023-02-06T21:03:20.376Z,95841.09
2023-02-06T21:05:58.682Z,95838.06
2023-02-06T21:08:26.772Z,95834.50
2023-02-06T21:10:53.453Z,95833.72
2023-02-06T21:13:20.106Z,95821.53
2023-02-06T21:15:52.614Z,95819.50
2023-02-06T21:18:20.000Z,95819.72
2023-02-06T21:20:46.949Z,95814.44
2023-02-06T21:23:14.039Z,95810.38
2023-02-06T21:25:41.301Z,95819.91
2023-02-06T21:28:08.179Z,95828.00
2023-02-06T21:30:35.493Z,95834.66
2023-02-06T21:33:02.452Z,95828.81
2023-02-06T21:35:30.446Z,95831.66
2023-02-06T21:37:57.317Z,95831.53
2023-02-06T21:40:24.144Z,95846.72
2023-02-06T21:42:50.818Z,95837.91
2023-02-06T21:45:17.517Z,95821.78
2023-02-06T21:47:44.169Z,95816.97
2023-02-06T21:50:10.828Z,95824.47
2023-02-06T21:52:38.133Z,95828.13
2023-02-06T21:55:07.614Z,95837.44
2023-02-06T21:57:34.360Z,95832.00
2023-02-06T22:00:01.078Z,95838.88
2023-02-06T22:02:27.936Z,95844.13
2023-02-06T22:04:54.765Z,95829.00
2023-02-06T22:07:21.445Z,95819.91
2023-02-06T22:09:48.146Z,95818.88
2023-02-06T22:12:14.848Z,95805.41
2023-02-06T22:14:41.744Z,95815.06
2023-02-06T22:17:08.428Z,95808.59
2023-02-06T22:19:35.256Z,95805.00
2023-02-06T22:22:02.609Z,95807.03
2023-02-06T22:24:29.503Z,95809.88
2023-02-06T22:26:56.608Z,95809.06
2023-02-06T22:29:23.565Z,95798.19
2023-02-06T22:31:52.596Z,95806.69
2023-02-06T22:34:21.691Z,95777.84
2023-02-06T22:36:51.260Z,95802.66
2023-02-06T22:39:19.013Z,95833.06
2023-02-06T22:41:46.094Z,95818.78
2023-02-06T22:44:16.350Z,95816.53
2023-02-06T22:46:45.265Z,95823.63
2023-02-06T22:49:12.735Z,95823.59
2023-02-06T22:51:40.857Z,95834.88
2023-02-06T22:54:11.688Z,95828.63
2023-02-06T22:56:40.156Z,95832.47
2023-02-06T22:59:22.071Z,95831.47
2023-02-06T23:01:54.837Z,95825.00
2023-02-06T23:04:24.803Z,95832.66
2023-02-06T23:06:52.089Z,95825.00
2023-02-06T23:09:28.595Z,95825.41
2023-02-06T23:11:58.509Z,95843.38
2023-02-06T23:14:26.770Z,95851.22
2023-02-06T23:16:53.467Z,95848.97
2023-02-06T23:19:20.970Z,95849.41
2023-02-06T23:21:49.823Z,95840.13
2023-02-06T23:24:16.702Z,95850.59
2023-02-06T23:26:46.011Z,95858.66
2023-02-06T23:29:17.894Z,95851.03
2023-02-06T23:31:46.419Z,95872.78
2023-02-06T23:34:13.962Z,95871.38
2023-02-06T23:36:40.967Z,95876.25
2023-02-06T23:39:07.694Z,95870.81
2023-02-06T23:41:34.752Z,95873.25
2023-02-06T23:44:04.769Z,95883.53
2023-02-06T23:46:34.540Z,95884.75
2023-02-06T23:49:01.281Z,95885.94
2023-02-06T23:51:28.477Z,95899.88
2023-02-06T23:53:55.160Z,95895.06
2023-02-06T23:56:27.886Z,95898.88
2023-02-06T23:58:56.233Z,95893.84
